Time;durP1;ratioP1;P1;durP2;ratioP2;P2;SDS_P1;SDS_P2;PMS_P1;PMS_P2;Temp;Humidity;BMP_temperature;BMP_pressure;BME280_temperature;BME280_humidity;BME280_pressure;Samples;Min_cycle;Max_cycle;Signal;HPM_P1;HPM_P2
2023/02/22 00:00:48;;;;;;;;;;;;;;;13.54;74.24;101236.91;1270858;23;721;-70
2023/02/22 00:01:49;;;;;;;;;;;;;;;13.53;74.74;101227.16;1271171;23;653;-70
2023/02/22 00:02:43;;;;;;;;;;;;;;;13.54;74.23;101228.03;1272678;23;652;-71
2023/02/22 00:03:34;;;;;;;;;;;;;;;13.54;74.39;101222.66;1272685;23;636;-71
2023/02/22 00:04:24;;;;;;;;;;;;;;;13.53;74.77;101224.50;1271737;23;606;-71
2023/02/22 00:05:18;;;;;;;;;;;;;;;13.55;74.22;101224.38;1271925;23;662;-70
2023/02/22 00:06:09;;;;;;;;;;;;;;;13.54;74.62;101223.53;1271315;23;639;-71
2023/02/22 00:07:00;;;;;;;;;;;;;;;13.53;74.75;101221.81;1271625;23;598;-70
2023/02/22 00:07:51;;;;;;;;;;;;;;;13.52;74.75;101222.78;1272013;23;610;-70
2023/02/22 00:08:41;;;;;;;;;;;;;;;13.52;74.79;101222.78;1271546;23;654;-71
2023/02/22 00:09:32;;;;;;;;;;;;;;;13.53;75.06;101221.81;1271956;23;670;-72
2023/02/22 00:10:22;;;;;;;;;;;;;;;13.52;74.25;101222.78;1271659;23;626;-72
2023/02/22 00:11:13;;;;;;;;;;;;;;;13.52;74.22;101222.78;1272419;23;672;-72
2023/02/22 00:12:04;;;;;;;;;;;;;;;13.52;74.52;101225.47;1271017;23;701;-71
2023/02/22 00:12:54;;;;;;;;;;;;;;;13.53;74.71;101221.81;1271453;23;622;-71
2023/02/22 00:13:44;;;;;;;;;;;;;;;13.52;74.60;101222.78;1271746;23;618;-71
2023/02/22 00:14:35;;;;;;;;;;;;;;;13.53;74.58;101229.84;1271858;23;650;-70
2023/02/22 00:15:28;;;;;;;;;;;;;;;13.52;74.93;101222.78;1270940;23;565;-71
2023/02/22 00:16:18;;;;;;;;;;;;;;;13.52;74.51;101236.16;1271753;23;648;-71
2023/02/22 00:17:12;;;;;;;;;;;;;;;13.52;74.78;101233.50;1271958;23;677;-71
2023/02/22 00:18:02;;;;;;;;;;;;;;;13.52;74.74;101228.13;1272576;23;625;-71
2023/02/22 00:18:53;;;;;;;;;;;;;;;13.52;74.44;101233.50;1272373;23;637;-71
2023/02/22 00:19:43;;;;;;;;;;;;;;;13.53;74.85;101226.31;1270344;23;630;-71
2023/02/22 00:20:34;;;;;;;;;;;;;;;13.52;74.69;101225.47;1271214;23;669;-71
2023/02/22 00:21:29;;;;;;;;;;;;;;;13.52;74.25;101225.47;1272588;23;633;-71
2023/02/22 00:22:20;;;;;;;;;;;;;;;13.51;74.46;101222.88;1272567;23;824;-71
2023/02/22 00:23:11;;;;;;;;;;;;;;;13.52;74.23;101225.47;1271743;23;670;-71
2023/02/22 00:24:15;;;;;;;;;;;;;;;13.52;74.31;101224.59;1270701;23;633;-71
2023/02/22 00:25:06;;;;;;;;;;;;;;;13.50;74.45;101224.72;1271221;23;638;-71
2023/02/22 00:25:56;;;;;;;;;;;;;;;13.50;74.25;101216.66;1270808;23;674;-71
2023/02/22 00:26:47;;;;;;;;;;;;;;;13.51;74.50;101230.91;1272679;23;668;-71
2023/02/22 00:27:37;;;;;;;;;;;;;;;13.50;74.88;101224.72;1270567;23;662;-72
2023/02/22 00:28:29;;;;;;;;;;;;;;;13.50;74.36;101219.34;1271659;23;630;-71
2023/02/22 00:29:19;;;;;;;;;;;;;;;13.50;75.08;101219.34;1272520;23;669;-71
2023/02/22 00:30:10;;;;;;;;;;;;;;;13.51;74.25;101223.75;1272043;23;666;-72
2023/02/22 00:31:00;;;;;;;;;;;;;;;13.51;74.31;101225.56;1271675;23;630;-71
2023/02/22 00:31:51;;;;;;;;;;;;;;;13.50;74.79;101222.03;1271812;23;650;-72
2023/02/22 00:32:41;;;;;;;;;;;;;;;13.50;74.38;101222.03;1272543;23;955;-72
2023/02/22 00:33:32;;;;;;;;;;;;;;;13.51;74.41;101217.53;1271744;23;787;-72
2023/02/22 00:34:23;;;;;;;;;;;;;;;13.50;74.20;101232.75;1272580;23;676;-72
2023/02/22 00:35:13;;;;;;;;;;;;;;;13.50;74.46;101237.25;1272500;23;708;-72
2023/02/22 00:36:03;;;;;;;;;;;;;;;13.49;74.71;101228.34;1271703;23;628;-72
2023/02/22 00:36:54;;;;;;;;;;;;;;;13.49;74.77;101223.00;1272357;23;700;-72
2023/02/22 00:37:44;;;;;;;;;;;;;;;13.50;74.40;101215.81;1266023;23;626;-71
2023/02/22 00:38:35;;;;;;;;;;;;;;;13.49;74.72;101217.63;1273020;23;647;-71
2023/02/22 00:39:25;;;;;;;;;;;;;;;13.50;73.98;101226.53;1272549;23;1934;-71
2023/02/22 00:40:16;;;;;;;;;;;;;;;13.50;74.83;101218.50;1271849;23;685;-71
2023/02/22 00:41:06;;;;;;;;;;;;;;;13.48;74.42;101215.91;1272438;23;704;-71
2023/02/22 00:41:56;;;;;;;;;;;;;;;13.49;74.75;101217.63;1271659;23;673;-71
2023/02/22 00:42:47;;;;;;;;;;;;;;;13.48;74.22;101215.91;1271903;23;658;-71
2023/02/22 00:43:37;;;;;;;;;;;;;;;13.48;74.55;101210.56;1271631;23;630;-70
2023/02/22 00:44:28;;;;;;;;;;;;;;;13.48;74.35;101213.25;1271811;23;634;-70
2023/02/22 00:45:18;;;;;;;;;;;;;;;13.48;74.67;101209.72;1272520;23;665;-70
2023/02/22 00:46:08;;;;;;;;;;;;;;;13.48;74.70;101218.59;1271874;23;673;-72
2023/02/22 00:46:59;;;;;;;;;;;;;;;13.49;74.36;101211.44;1271853;23;661;-72
2023/02/22 00:47:49;;;;;;;;;;;;;;;13.49;74.06;101208.75;1270840;23;658;-71
2023/02/22 00:48:40;;;;;;;;;;;;;;;13.48;74.51;101212.38;1271026;23;635;-72
2023/02/22 00:49:30;;;;;;;;;;;;;;;13.47;74.27;101208.84;1272445;23;665;-71
2023/02/22 00:50:20;;;;;;;;;;;;;;;13.47;74.65;101205.31;1272269;23;692;-72
2023/02/22 00:51:11;;;;;;;;;;;;;;;13.46;74.63;101220.53;1270910;23;638;-72
2023/02/22 00:52:03;;;;;;;;;;;;;;;13.47;74.54;101206.19;1271259;23;626;-72
2023/02/22 00:52:53;;;;;;;;;;;;;;;13.47;74.38;101205.31;1272554;23;677;-72
2023/02/22 00:53:44;;;;;;;;;;;;;;;13.46;74.92;101203.59;1271903;23;633;-73
2023/02/22 00:54:34;;;;;;;;;;;;;;;13.45;74.71;101197.41;1271496;23;662;-73
2023/02/22 00:55:25;;;;;;;;;;;;;;;13.46;74.78;101200.94;1271820;23;634;-73
2023/02/22 00:56:15;;;;;;;;;;;;;;;13.45;74.87;101197.41;1271604;23;693;-72
2023/02/22 00:57:06;;;;;;;;;;;;;;;13.45;74.26;101192.03;1270967;23;553;-72
2023/02/22 00:57:56;;;;;;;;;;;;;;;13.46;74.73;101192.91;1271991;23;665;-72
2023/02/22 00:58:47;;;;;;;;;;;;;;;13.46;73.97;101192.91;1272155;23;643;-71
2023/02/22 00:59:37;;;;;;;;;;;;;;;13.46;74.46;101192.91;1270941;23;1920;-73
2023/02/22 01:00:27;;;;;;;;;;;;;;;13.45;74.56;101191.19;1271607;23;640;-70
2023/02/22 01:01:19;;;;;;;;;;;;;;;13.45;74.29;101185.81;1272016;23;658;-71
2023/02/22 01:02:09;;;;;;;;;;;;;;;13.44;74.43;101189.47;1272627;23;686;-71
2023/02/22 01:03:00;;;;;;;;;;;;;;;13.44;74.76;101184.13;1271784;23;634;-70
2023/02/22 01:03:50;;;;;;;;;;;;;;;13.45;74.39;101196.53;1271642;23;682;-71
2023/02/22 01:04:41;;;;;;;;;;;;;;;13.44;74.43;101184.13;1271830;23;669;-70
2023/02/22 01:05:32;;;;;;;;;;;;;;;13.45;74.23;101186.69;1271464;23;666;-70
2023/02/22 01:06:22;;;;;;;;;;;;;;;13.45;74.78;101191.19;1271565;23;665;-70
2023/02/22 01:07:13;;;;;;;;;;;;;;;13.44;74.76;101187.66;1272026;23;615;-70
2023/02/22 01:08:05;;;;;;;;;;;;;;;13.44;74.55;101189.47;1272003;23;661;-70
2023/02/22 01:08:55;;;;;;;;;;;;;;;13.44;74.92;101184.13;1271184;23;626;-71
2023/02/22 01:09:46;;;;;;;;;;;;;;;13.44;74.48;101190.31;1272191;23;662;-71
2023/02/22 01:10:36;;;;;;;;;;;;;;;13.41;74.94;101185.22;1271239;23;602;-71
2023/02/22 01:11:27;;;;;;;;;;;;;;;13.42;74.89;101178.03;1272202;23;662;-71
2023/02/22 01:12:19;;;;;;;;;;;;;;;13.42;74.49;101186.94;1271979;23;674;-71
2023/02/22 01:13:10;;;;;;;;;;;;;;;13.42;74.60;101175.38;1273025;23;669;-71
2023/02/22 01:14:01;;;;;;;;;;;;;;;13.43;74.95;101177.09;1272852;23;622;-72
2023/02/22 01:14:55;;;;;;;;;;;;;;;13.43;74.85;101185.97;1272086;23;658;-71
2023/02/22 01:15:46;;;;;;;;;;;;;;;13.42;74.73;101189.59;1271311;23;645;-70
2023/02/22 01:16:36;;;;;;;;;;;;;;;13.43;74.84;101188.66;1272587;23;680;-71
2023/02/22 01:17:27;;;;;;;;;;;;;;;13.44;74.35;101200.19;1270846;23;606;-71
2023/02/22 01:18:17;;;;;;;;;;;;;;;13.43;74.03;101191.31;1271006;23;633;-71
2023/02/22 01:19:07;;;;;;;;;;;;;;;13.43;74.51;101183.28;1271889;23;1102;-70
2023/02/22 01:19:58;;;;;;;;;;;;;;;13.42;74.16;101189.59;1272149;23;923;-71
2023/02/22 01:20:48;;;;;;;;;;;;;;;13.41;75.04;101184.38;1271897;23;636;-72
2023/02/22 01:21:39;;;;;;;;;;;;;;;13.41;74.98;101190.56;1272860;23;630;-70
2023/02/22 01:22:29;;;;;;;;;;;;;;;13.41;74.92;101185.22;1272897;23;665;-72
2023/02/22 01:23:20;;;;;;;;;;;;;;;13.41;74.61;101187.91;1272053;23;653;-72
2023/02/22 01:24:14;;;;;;;;;;;;;;;13.41;75.29;101179.88;1272946;23;728;-72
2023/02/22 01:25:06;;;;;;;;;;;;;;;13.42;75.14;101183.41;1273056;23;656;-72
2023/02/22 01:25:56;;;;;;;;;;;;;;;13.41;74.83;101182.53;1272823;23;838;-73
2023/02/22 01:26:47;;;;;;;;;;;;;;;13.41;74.83;101177.19;1272113;23;653;-73
2023/02/22 01:27:37;;;;;;;;;;;;;;;13.41;74.63;101187.91;1271880;23;645;-73
2023/02/22 01:28:28;;;;;;;;;;;;;;;13.42;74.25;101178.03;1271490;23;650;-70
2023/02/22 01:29:19;;;;;;;;;;;;;;;13.42;74.44;101180.72;1270697;23;728;-72
2023/02/22 01:30:11;;;;;;;;;;;;;;;13.41;75.04;101179.88;1272977;23;637;-72
2023/02/22 01:31:01;;;;;;;;;;;;;;;13.42;74.63;101186.94;1272349;23;680;-72
2023/02/22 01:31:53;;;;;;;;;;;;;;;13.41;74.80;101168.28;1272279;23;676;-71
2023/02/22 01:32:43;;;;;;;;;;;;;;;13.40;74.96;101174.63;1271215;23;661;-72
2023/02/22 01:33:34;;;;;;;;;;;;;;;13.41;74.58;101179.00;1272204;23;877;-72
2023/02/22 01:34:24;;;;;;;;;;;;;;;13.40;74.61;101177.28;1270936;23;709;-72
2023/02/22 01:35:17;;;;;;;;;;;;;;;13.40;74.49;101171.94;1272268;23;709;-72
2023/02/22 01:36:10;;;;;;;;;;;;;;;13.40;75.25;101164.75;1271111;23;670;-72
2023/02/22 01:37:00;;;;;;;;;;;;;;;13.39;74.97;101173.75;1271869;23;661;-72
2023/02/22 01:37:51;;;;;;;;;;;;;;;13.39;74.48;101176.44;1272126;23;669;-72
2023/02/22 01:38:41;;;;;;;;;;;;;;;13.40;74.59;101178.16;1270878;23;772;-72
2023/02/22 01:39:32;;;;;;;;;;;;;;;13.39;74.88;101176.44;1272779;23;1889;-72
2023/02/22 01:40:22;;;;;;;;;;;;;;;13.40;75.01;101177.28;1272749;23;649;-72
2023/02/22 01:41:16;;;;;;;;;;;;;;;13.40;74.80;101177.28;1272439;23;630;-72
2023/02/22 01:42:08;;;;;;;;;;;;;;;13.39;74.69;101176.44;1271163;23;622;-72
2023/02/22 01:42:59;;;;;;;;;;;;;;;13.39;74.54;101176.44;1270651;23;614;-72
2023/02/22 01:43:49;;;;;;;;;;;;;;;13.37;74.93;101170.34;1272219;23;594;-72
2023/02/22 01:44:40;;;;;;;;;;;;;;;13.37;74.86;101174.81;1271866;23;677;-72
2023/02/22 01:45:33;;;;;;;;;;;;;;;13.35;74.98;101168.72;1271085;23;616;-72
2023/02/22 01:46:24;;;;;;;;;;;;;;;13.36;75.05;101170.44;1272944;23;617;-72
2023/02/22 01:47:15;;;;;;;;;;;;;;;13.38;74.47;101168.50;1271888;23;625;-72
2023/02/22 01:48:05;;;;;;;;;;;;;;;13.37;75.14;101164.97;1272751;23;691;-72
2023/02/22 01:48:55;;;;;;;;;;;;;;;13.38;74.68;101166.69;1271975;23;626;-72
2023/02/22 01:49:46;;;;;;;;;;;;;;;13.38;74.62;101165.84;1272003;23;641;-71
2023/02/22 01:50:36;;;;;;;;;;;;;;;13.39;75.09;101165.72;1271877;23;636;-71
2023/02/22 01:51:27;;;;;;;;;;;;;;;13.37;74.95;101161.44;1272170;23;649;-71
2023/02/22 01:52:17;;;;;;;;;;;;;;;13.37;74.95;101162.31;1271920;23;712;-71
2023/02/22 01:53:08;;;;;;;;;;;;;;;13.38;75.02;101157.81;1271944;23;652;-70
2023/02/22 01:53:58;;;;;;;;;;;;;;;13.36;75.34;101160.59;1270962;23;634;-70
2023/02/22 01:54:48;;;;;;;;;;;;;;;13.36;74.61;101157.91;1272854;23;610;-71
2023/02/22 01:55:39;;;;;;;;;;;;;;;13.37;74.53;101162.31;1272105;23;738;-71
2023/02/22 01:56:29;;;;;;;;;;;;;;;13.39;75.25;101160.38;1271949;23;602;-71
2023/02/22 01:57:20;;;;;;;;;;;;;;;13.38;74.85;101155.13;1272421;23;688;-71
2023/02/22 01:58:10;;;;;;;;;;;;;;;13.38;75.22;101153.31;1272872;23;657;-71
2023/02/22 01:59:01;;;;;;;;;;;;;;;13.37;75.27;101148.06;1271994;23;614;-71
2023/02/22 01:59:51;;;;;;;;;;;;;;;13.37;74.50;101151.59;1272177;23;665;-71
2023/02/22 02:00:43;;;;;;;;;;;;;;;13.38;74.86;101152.44;1271891;23;693;-71
2023/02/22 02:01:33;;;;;;;;;;;;;;;13.38;74.85;101157.81;1272951;23;890;-71
2023/02/22 02:02:24;;;;;;;;;;;;;;;13.38;75.31;101153.31;1271336;23;622;-71
2023/02/22 02:03:14;;;;;;;;;;;;;;;13.36;74.59;101147.19;1271076;23;634;-71
2023/02/22 02:04:05;;;;;;;;;;;;;;;13.35;74.79;101148.16;1272141;23;626;-71
2023/02/22 02:04:55;;;;;;;;;;;;;;;13.35;74.44;101152.66;1271913;23;599;-71
2023/02/22 02:05:46;;;;;;;;;;;;;;;13.34;74.33;101145.59;1272035;23;692;-71
2023/02/22 02:06:36;;;;;;;;;;;;;;;13.33;74.84;101142.06;1270917;23;626;-71
2023/02/22 02:07:28;;;;;;;;;;;;;;;13.34;75.11;101142.91;1271960;23;598;-71
2023/02/22 02:08:19;;;;;;;;;;;;;;;13.34;74.53;101141.09;1272701;23;602;-71
2023/02/22 02:09:09;;;;;;;;;;;;;;;13.34;74.80;101141.09;1271779;23;622;-71
2023/02/22 02:10:00;;;;;;;;;;;;;;;13.34;74.69;101151.81;1272878;23;664;-71
2023/02/22 02:10:50;;;;;;;;;;;;;;;13.35;74.44;101150.84;1272639;23;712;-71
2023/02/22 02:11:41;;;;;;;;;;;;;;;13.33;74.62;101147.41;1272315;23;692;-71
2023/02/22 02:12:31;;;;;;;;;;;;;;;13.33;75.09;101141.22;1271801;23;614;-71
2023/02/22 02:13:22;;;;;;;;;;;;;;;13.32;75.42;101140.34;1271982;23;698;-70
2023/02/22 02:14:12;;;;;;;;;;;;;;;13.32;74.60;101145.72;1273101;23;637;-70
2023/02/22 02:15:02;;;;;;;;;;;;;;;13.32;75.22;101143.03;1271900;23;674;-71
2023/02/22 02:15:53;;;;;;;;;;;;;;;13.32;74.92;101142.16;1271326;23;614;-71
2023/02/22 02:16:44;;;;;;;;;;;;;;;13.32;74.28;101142.16;1272095;23;673;-71
2023/02/22 02:17:35;;;;;;;;;;;;;;;13.31;74.95;101138.63;1270944;23;646;-71
2023/02/22 02:18:26;;;;;;;;;;;;;;;13.32;74.58;101136.81;1271906;23;637;-71
2023/02/22 02:19:16;;;;;;;;;;;;;;;13.32;75.08;101135.00;1271670;23;1221;-71
2023/02/22 02:20:07;;;;;;;;;;;;;;;13.32;75.13;101132.31;1272541;23;657;-70
2023/02/22 02:20:57;;;;;;;;;;;;;;;13.32;75.38;101140.34;1272368;23;721;-71
2023/02/22 02:21:48;;;;;;;;;;;;;;;13.32;74.93;101131.47;1271378;23;674;-71
2023/02/22 02:22:41;;;;;;;;;;;;;;;13.32;74.78;101136.81;1272046;23;668;-71
2023/02/22 02:23:31;;;;;;;;;;;;;;;13.32;74.99;101132.31;1272829;23;637;-71
2023/02/22 02:24:22;;;;;;;;;;;;;;;13.32;74.69;101128.78;1272921;23;680;-71
2023/02/22 02:25:12;;;;;;;;;;;;;;;13.31;74.79;101127.06;1270898;23;895;-71
2023/02/22 02:26:03;;;;;;;;;;;;;;;13.29;75.00;101121.84;1271377;23;630;-70
2023/02/22 02:26:53;;;;;;;;;;;;;;;13.29;75.23;101129.88;1272706;23;657;-70
2023/02/22 02:27:43;;;;;;;;;;;;;;;13.32;74.74;101120.75;1271768;23;606;-70
2023/02/22 02:28:34;;;;;;;;;;;;;;;13.32;75.42;101126.13;1272698;23;551;-71
2023/02/22 02:29:24;;;;;;;;;;;;;;;13.30;75.19;101126.22;1272363;23;677;-71
2023/02/22 02:30:15;;;;;;;;;;;;;;;13.30;75.29;101120.88;1270909;23;681;-72
2023/02/22 02:31:06;;;;;;;;;;;;;;;13.30;74.97;101122.69;1272729;23;665;-71
2023/02/22 02:31:57;;;;;;;;;;;;;;;13.30;75.02;101120.00;1272651;23;673;-71
2023/02/22 02:32:47;;;;;;;;;;;;;;;13.29;75.34;101121.84;1272933;23;632;-71
2023/02/22 02:33:37;;;;;;;;;;;;;;;13.28;75.18;101117.44;1271750;23;630;-70
2023/02/22 02:34:28;;;;;;;;;;;;;;;13.29;74.57;101112.94;1271897;23;673;-70
2023/02/22 02:35:20;;;;;;;;;;;;;;;13.30;74.57;101125.38;1271756;23;665;-70
2023/02/22 02:36:10;;;;;;;;;;;;;;;13.27;74.85;101118.41;1272308;23;677;-70
2023/02/22 02:37:01;;;;;;;;;;;;;;;13.26;75.27;101115.84;1270719;23;670;-70
2023/02/22 02:37:52;;;;;;;;;;;;;;;13.26;75.27;101119.38;1272855;23;618;-70
2023/02/22 02:38:43;;;;;;;;;;;;;;;13.27;74.72;101118.41;1271186;23;657;-71
2023/02/22 02:39:33;;;;;;;;;;;;;;;13.28;74.97;101117.44;1271825;23;1881;-70
2023/02/22 02:40:24;;;;;;;;;;;;;;;13.27;75.22;101115.72;1271912;23;689;-70
2023/02/22 02:41:14;;;;;;;;;;;;;;;13.27;75.12;101114.88;1272742;23;880;-71
2023/02/22 02:42:05;;;;;;;;;;;;;;;13.26;75.60;101111.34;1272606;23;634;-71
2023/02/22 02:42:55;;;;;;;;;;;;;;;13.28;74.41;101108.56;1272069;23;677;-71
2023/02/22 02:43:46;;;;;;;;;;;;;;;13.26;74.85;101106.00;1271726;23;630;-71
2023/02/22 02:44:36;;;;;;;;;;;;;;;13.26;75.38;101106.00;1272032;23;670;-71
2023/02/22 02:45:27;;;;;;;;;;;;;;;13.27;75.31;101101.50;1272920;23;652;-70
2023/02/22 02:46:17;;;;;;;;;;;;;;;13.28;75.41;101108.56;1272156;23;665;-70
2023/02/22 02:47:08;;;;;;;;;;;;;;;13.27;75.39;101099.66;1271871;23;665;-71
2023/02/22 02:47:58;;;;;;;;;;;;;;;13.27;75.27;101102.34;1272156;23;618;-70
2023/02/22 02:48:49;;;;;;;;;;;;;;;13.28;74.78;101103.19;1271785;23;622;-71
2023/02/22 02:49:39;;;;;;;;;;;;;;;13.26;74.47;101095.28;1272779;23;696;-71
2023/02/22 02:50:30;;;;;;;;;;;;;;;13.26;74.73;101097.09;1271807;23;630;-71
2023/02/22 02:51:20;;;;;;;;;;;;;;;13.27;74.60;101098.81;1271987;23;645;-71
2023/02/22 02:52:12;;;;;;;;;;;;;;;13.25;74.62;101096.28;1270876;23;632;-71
2023/02/22 02:53:02;;;;;;;;;;;;;;;13.23;74.63;101098.22;1272914;23;657;-70
2023/02/22 02:53:52;;;;;;;;;;;;;;;13.24;74.79;101101.75;1271824;23;623;-71
2023/02/22 02:54:44;;;;;;;;;;;;;;;13.24;75.19;101086.53;1272055;23;670;-72
2023/02/22 02:55:35;;;;;;;;;;;;;;;13.24;74.49;101091.88;1271058;23;646;-72
2023/02/22 02:56:26;;;;;;;;;;;;;;;13.25;75.24;101093.59;1271840;23;642;-71
2023/02/22 02:57:16;;;;;;;;;;;;;;;13.24;75.59;101091.03;1272154;23;549;-71
2023/02/22 02:58:06;;;;;;;;;;;;;;;13.24;74.75;101089.22;1271795;23;682;-71
2023/02/22 02:58:57;;;;;;;;;;;;;;;13.23;75.27;101098.22;1272004;23;657;-71
2023/02/22 02:59:47;;;;;;;;;;;;;;;13.24;74.62;101096.38;1271397;23;1923;-71
2023/02/22 03:00:38;;;;;;;;;;;;;;;13.25;74.68;101092.75;1271797;23;588;-72
2023/02/22 03:01:28;;;;;;;;;;;;;;;13.25;74.71;101098.09;1271963;23;701;-71
2023/02/22 03:02:19;;;;;;;;;;;;;;;13.25;74.71;101093.59;1271814;23;639;-71
2023/02/22 03:03:09;;;;;;;;;;;;;;;13.26;74.79;101091.75;1271983;23;638;-71
2023/02/22 03:03:59;;;;;;;;;;;;;;;13.25;74.94;101095.44;1271672;23;649;-71
2023/02/22 03:04:52;;;;;;;;;;;;;;;13.24;75.32;101097.25;1271948;23;685;-71
2023/02/22 03:05:43;;;;;;;;;;;;;;;13.27;74.84;101093.47;1272024;23;652;-71
2023/02/22 03:06:33;;;;;;;;;;;;;;;13.25;75.02;101093.59;1272596;23;661;-72
2023/02/22 03:07:24;;;;;;;;;;;;;;;13.25;75.20;101090.94;1272731;23;629;-71
2023/02/22 03:08:14;;;;;;;;;;;;;;;13.25;75.48;101095.44;1272023;23;642;-71
2023/02/22 03:09:05;;;;;;;;;;;;;;;13.25;74.62;101093.59;1271818;23;634;-72
2023/02/22 03:09:57;;;;;;;;;;;;;;;13.26;74.80;101089.94;1271749;23;684;-71
2023/02/22 03:10:49;;;;;;;;;;;;;;;13.25;75.16;101088.25;1270351;23;653;-71
2023/02/22 03:11:40;;;;;;;;;;;;;;;13.25;75.14;101085.56;1270673;23;713;-71
2023/02/22 03:12:30;;;;;;;;;;;;;;;13.23;75.22;101090.19;1272842;23;657;-71
2023/02/22 03:13:21;;;;;;;;;;;;;;;13.25;75.09;101084.72;1271794;23;630;-72
2023/02/22 03:14:11;;;;;;;;;;;;;;;13.24;74.48;101086.53;1271924;23;652;-72
2023/02/22 03:15:01;;;;;;;;;;;;;;;13.23;74.71;101082.16;1270776;23;599;-72
2023/02/22 03:15:52;;;;;;;;;;;;;;;13.23;74.83;101078.63;1271816;23;677;-73
2023/02/22 03:16:43;;;;;;;;;;;;;;;13.23;75.26;101087.50;1270655;23;740;-72
2023/02/22 03:17:35;;;;;;;;;;;;;;;13.24;74.99;101080.34;1272825;23;632;-72
2023/02/22 03:18:27;;;;;;;;;;;;;;;13.25;75.31;101082.03;1271786;23;731;-72
2023/02/22 03:19:18;;;;;;;;;;;;;;;13.24;74.94;101083.88;1271809;23;1067;-72
2023/02/22 03:20:08;;;;;;;;;;;;;;;13.24;74.65;101083.88;1270685;23;748;-72
2023/02/22 03:20:59;;;;;;;;;;;;;;;13.22;74.75;101080.44;1271731;23;657;-72
2023/02/22 03:21:49;;;;;;;;;;;;;;;13.22;75.24;101077.75;1271838;23;638;-72
2023/02/22 03:22:42;;;;;;;;;;;;;;;13.22;74.71;101067.06;1272247;23;676;-72
2023/02/22 03:23:33;;;;;;;;;;;;;;;13.23;74.89;101067.91;1272305;23;680;-72
2023/02/22 03:24:23;;;;;;;;;;;;;;;13.23;75.00;101062.56;1270296;23;680;-72
2023/02/22 03:25:14;;;;;;;;;;;;;;;13.23;75.24;101068.78;1271682;23;626;-72
2023/02/22 03:26:04;;;;;;;;;;;;;;;13.23;75.25;101068.78;1271981;23;688;-72
2023/02/22 03:26:55;;;;;;;;;;;;;;;13.23;74.88;101067.91;1271613;23;642;-72
2023/02/22 03:27:45;;;;;;;;;;;;;;;13.23;74.71;101071.44;1271317;23;661;-72
2023/02/22 03:28:36;;;;;;;;;;;;;;;13.23;74.74;101068.78;1271655;23;642;-72
2023/02/22 03:29:26;;;;;;;;;;;;;;;13.23;75.61;101067.91;1272030;23;650;-72
2023/02/22 03:30:16;;;;;;;;;;;;;;;13.21;74.89;101070.69;1270329;23;636;-71
2023/02/22 03:31:09;;;;;;;;;;;;;;;13.22;74.82;101069.72;1271870;23;661;-72
2023/02/22 03:32:00;;;;;;;;;;;;;;;13.19;75.30;101068.13;1271878;23;642;-72
2023/02/22 03:32:50;;;;;;;;;;;;;;;13.19;74.68;101064.59;1271966;23;629;-72
2023/02/22 03:33:41;;;;;;;;;;;;;;;13.19;75.57;101059.25;1271654;23;626;-72
2023/02/22 03:34:31;;;;;;;;;;;;;;;13.19;75.37;101059.25;1271923;23;630;-72
2023/02/22 03:35:22;;;;;;;;;;;;;;;13.19;75.02;101064.59;1271694;23;676;-72
2023/02/22 03:36:12;;;;;;;;;;;;;;;13.18;75.29;101061.06;1271271;23;638;-72
2023/02/22 03:37:03;;;;;;;;;;;;;;;13.17;75.25;101059.34;1272701;23;658;-72
2023/02/22 03:37:53;;;;;;;;;;;;;;;13.16;75.41;101062.13;1272077;23;634;-72
2023/02/22 03:38:43;;;;;;;;;;;;;;;13.17;75.26;101062.03;1271114;23;614;-72
2023/02/22 03:39:34;;;;;;;;;;;;;;;13.17;75.06;101056.69;1271760;23;1939;-72
2023/02/22 03:40:25;;;;;;;;;;;;;;;13.17;74.86;101064.69;1270755;23;661;-72
2023/02/22 03:41:15;;;;;;;;;;;;;;;13.16;75.57;101059.47;1271665;23;692;-72
2023/02/22 03:42:06;;;;;;;;;;;;;;;13.16;75.15;101056.78;1271737;23;666;-72
2023/02/22 03:42:58;;;;;;;;;;;;;;;13.16;74.58;101059.47;1271955;23;673;-72
2023/02/22 03:43:49;;;;;;;;;;;;;;;13.16;75.38;101054.97;1271874;23;661;-72
2023/02/22 03:44:39;;;;;;;;;;;;;;;13.17;74.68;101058.50;1271477;23;634;-72
2023/02/22 03:45:30;;;;;;;;;;;;;;;13.17;74.82;101059.34;1271716;23;639;-72
2023/02/22 03:46:20;;;;;;;;;;;;;;;13.17;75.44;101053.16;1271962;23;657;-72
2023/02/22 03:47:11;;;;;;;;;;;;;;;13.17;74.76;101047.78;1272618;23;626;-72
2023/02/22 03:48:01;;;;;;;;;;;;;;;13.17;74.80;101050.47;1272806;23;681;-72
2023/02/22 03:48:53;;;;;;;;;;;;;;;13.16;74.80;101048.75;1272652;23;631;-72
2023/02/22 03:49:43;;;;;;;;;;;;;;;13.16;75.35;101051.44;1272013;23;665;-72
2023/02/22 03:50:34;;;;;;;;;;;;;;;13.15;74.88;101055.06;1272723;23;661;-73
2023/02/22 03:51:24;;;;;;;;;;;;;;;13.15;75.43;101047.03;1272627;23;650;-72
2023/02/22 03:52:16;;;;;;;;;;;;;;;13.14;74.72;101051.50;1272774;23;635;-71
2023/02/22 03:53:06;;;;;;;;;;;;;;;13.14;74.89;101051.50;1271400;23;685;-72
2023/02/22 03:53:56;;;;;;;;;;;;;;;13.15;75.52;101049.72;1271718;23;665;-73
2023/02/22 03:54:47;;;;;;;;;;;;;;;13.15;74.72;101049.72;1271787;23;641;-72
2023/02/22 03:55:37;;;;;;;;;;;;;;;13.15;75.31;101052.41;1272434;23;739;-72
2023/02/22 03:56:34;;;;;;;;;;;;;;;13.15;74.63;101052.41;1271666;23;611;-72
2023/02/22 03:57:24;;;;;;;;;;;;;;;13.14;75.07;101047.97;1272588;23;610;-71
2023/02/22 03:58:15;;;;;;;;;;;;;;;13.14;75.36;101047.97;1271713;23;653;-70
2023/02/22 03:59:05;;;;;;;;;;;;;;;13.15;74.93;101044.38;1272001;23;672;-71
2023/02/22 03:59:56;;;;;;;;;;;;;;;13.14;74.71;101043.47;1271523;23;649;-70
2023/02/22 04:00:46;;;;;;;;;;;;;;;13.13;75.00;101041.78;1272632;23;665;-70
2023/02/22 04:01:36;;;;;;;;;;;;;;;13.14;74.88;101039.94;1271554;23;631;-71
2023/02/22 04:02:27;;;;;;;;;;;;;;;13.15;74.82;101047.03;1271607;23;689;-71
2023/02/22 04:03:17;;;;;;;;;;;;;;;13.15;74.51;101041.69;1271494;23;658;-71
2023/02/22 04:04:08;;;;;;;;;;;;;;;13.14;74.93;101042.63;1271703;23;618;-71
2023/02/22 04:04:58;;;;;;;;;;;;;;;13.14;74.93;101037.28;1271933;23;670;-71
2023/02/22 04:05:49;;;;;;;;;;;;;;;13.14;74.92;101037.28;1272521;23;662;-71
2023/02/22 04:06:39;;;;;;;;;;;;;;;13.15;75.20;101039.03;1272571;23;640;-71
2023/02/22 04:07:29;;;;;;;;;;;;;;;13.14;75.40;101027.44;1271555;23;638;-71
2023/02/22 04:08:20;;;;;;;;;;;;;;;13.14;74.90;101038.13;1271716;23;607;-71
2023/02/22 04:09:10;;;;;;;;;;;;;;;13.14;75.33;101037.28;1272458;23;696;-72
2023/02/22 04:10:07;;;;;;;;;;;;;;;13.14;74.81;101026.56;1272457;23;609;-71
2023/02/22 04:10:57;;;;;;;;;;;;;;;13.14;75.25;101026.56;1270681;23;740;-71
2023/02/22 04:11:48;;;;;;;;;;;;;;;13.13;74.77;101033.75;1271576;23;622;-71
2023/02/22 04:12:38;;;;;;;;;;;;;;;13.13;74.82;101028.38;1271875;23;650;-72
2023/02/22 04:13:29;;;;;;;;;;;;;;;13.14;75.11;101026.56;1272491;23;610;-71
2023/02/22 04:14:19;;;;;;;;;;;;;;;13.13;75.38;101023.03;1271705;23;626;-71
2023/02/22 04:15:09;;;;;;;;;;;;;;;13.13;75.33;101024.84;1271627;23;656;-72
2023/02/22 04:16:00;;;;;;;;;;;;;;;13.13;75.41;101024.84;1271608;23;606;-70
2023/02/22 04:16:50;;;;;;;;;;;;;;;13.14;74.56;101029.25;1271893;23;638;-71
2023/02/22 04:17:41;;;;;;;;;;;;;;;13.12;74.52;101029.34;1271522;23;1002;-71
2023/02/22 04:18:31;;;;;;;;;;;;;;;13.12;75.29;101024.00;1271803;23;638;-71
2023/02/22 04:19:21;;;;;;;;;;;;;;;13.11;75.24;101024.97;1271371;23;1092;-71
2023/02/22 04:20:12;;;;;;;;;;;;;;;13.10;74.63;101028.59;1271698;23;719;-71
2023/02/22 04:21:02;;;;;;;;;;;;;;;13.09;75.17;101034.91;1271535;23;801;-71
2023/02/22 04:21:53;;;;;;;;;;;;;;;13.09;74.94;101029.56;1271673;23;638;-70
2023/02/22 04:22:43;;;;;;;;;;;;;;;13.10;75.23;101031.28;1271895;23;646;-70
2023/02/22 04:23:34;;;;;;;;;;;;;;;13.10;75.36;101025.94;1271603;23;618;-70
2023/02/22 04:24:24;;;;;;;;;;;;;;;13.10;74.69;101020.59;1271797;23;649;-70
2023/02/22 04:25:15;;;;;;;;;;;;;;;13.10;75.55;101020.59;1271572;23;666;-72
2023/02/22 04:26:05;;;;;;;;;;;;;;;13.10;74.68;101025.06;1271501;23;661;-72
2023/02/22 04:26:55;;;;;;;;;;;;;;;13.10;74.71;101028.59;1271548;23;630;-70
2023/02/22 04:27:46;;;;;;;;;;;;;;;13.10;75.42;101025.06;1271648;23;643;-71
2023/02/22 04:28:36;;;;;;;;;;;;;;;13.09;75.07;101018.88;1272339;23;685;-70